sensor_id;sensor_type;location;lat;lon;timestamp;pressure;altitude;pressure_sealevel;temperature;humidity
14204;BME280;7185;51.854;6.622;2022-08-24T00:01:17;101400.50;;;23.73;65.78
14204;BME280;7185;51.854;6.622;2022-08-24T00:03:49;101399.16;;;23.66;65.89
14204;BME280;7185;51.854;6.622;2022-08-24T00:06:23;101401.09;;;23.64;66.09
14204;BME280;7185;51.854;6.622;2022-08-24T00:08:56;101395.34;;;23.70;66.02
14204;BME280;7185;51.854;6.622;2022-08-24T00:11:28;101397.06;;;23.71;66.01
14204;BME280;7185;51.854;6.622;2022-08-24T00:14:00;101396.84;;;23.60;65.91
14204;BME280;7185;51.854;6.622;2022-08-24T00:16:32;101399.22;;;23.50;66.26
14204;BME280;7185;51.854;6.622;2022-08-24T00:19:04;101395.88;;;23.46;66.56
14204;BME280;7185;51.854;6.622;2022-08-24T00:21:37;101395.09;;;23.44;66.34
14204;BME280;7185;51.854;6.622;2022-08-24T00:24:09;101395.47;;;23.38;67.03
14204;BME280;7185;51.854;6.622;2022-08-24T00:26:41;101391.44;;;23.31;67.17
14204;BME280;7185;51.854;6.622;2022-08-24T00:29:13;101394.47;;;23.24;67.69
14204;BME280;7185;51.854;6.622;2022-08-24T00:31:45;101401.91;;;23.19;67.88
14204;BME280;7185;51.854;6.622;2022-08-24T00:34:16;101404.16;;;23.11;68.36
14204;BME280;7185;51.854;6.622;2022-08-24T00:36:49;101404.41;;;23.06;68.70
14204;BME280;7185;51.854;6.622;2022-08-24T00:39:24;101410.03;;;23.02;69.10
14204;BME280;7185;51.854;6.622;2022-08-24T00:41:56;101403.13;;;22.98;69.16
14204;BME280;7185;51.854;6.622;2022-08-24T00:44:27;101407.13;;;22.90;69.49
14204;BME280;7185;51.854;6.622;2022-08-24T00:47:02;101409.69;;;22.92;69.81
14204;BME280;7185;51.854;6.622;2022-08-24T00:49:39;101413.69;;;23.01;69.10
14204;BME280;7185;51.854;6.622;2022-08-24T00:52:17;101410.03;;;23.02;69.46
14204;BME280;7185;51.854;6.622;2022-08-24T00:54:53;101409.88;;;22.89;69.93
14204;BME280;7185;51.854;6.622;2022-08-24T00:57:28;101404.81;;;22.84;69.71
14204;BME280;7185;51.854;6.622;2022-08-24T01:00:07;101410.50;;;22.78;70.20
14204;BME280;7185;51.854;6.622;2022-08-24T01:02:43;101413.53;;;22.72;70.57
14204;BME280;7185;51.854;6.622;2022-08-24T01:05:15;101414.63;;;22.68;70.61
14204;BME280;7185;51.854;6.622;2022-08-24T01:07:49;101415.41;;;22.70;70.71
14204;BME280;7185;51.854;6.622;2022-08-24T01:10:25;101411.97;;;22.68;70.85
14204;BME280;7185;51.854;6.622;2022-08-24T01:13:00;101411.63;;;22.58;71.02
14204;BME280;7185;51.854;6.622;2022-08-24T01:15:35;101416.03;;;22.59;70.60
14204;BME280;7185;51.854;6.622;2022-08-24T01:18:11;101412.81;;;22.52;71.24
14204;BME280;7185;51.854;6.622;2022-08-24T01:21:03;101416.28;;;22.54;71.55
14204;BME280;7185;51.854;6.622;2022-08-24T01:23:40;101423.34;;;22.55;71.08
14204;BME280;7185;51.854;6.622;2022-08-24T01:26:16;101410.34;;;22.49;71.45
14204;BME280;7185;51.854;6.622;2022-08-24T01:28:51;101422.91;;;22.63;70.93
14204;BME280;7185;51.854;6.622;2022-08-24T01:31:25;101419.38;;;22.63;70.79
14204;BME280;7185;51.854;6.622;2022-08-24T01:33:57;101413.78;;;22.51;70.94
14204;BME280;7185;51.854;6.622;2022-08-24T01:36:31;101404.19;;;22.47;70.98
14204;BME280;7185;51.854;6.622;2022-08-24T01:39:07;101405.94;;;22.48;71.20
14204;BME280;7185;51.854;6.622;2022-08-24T01:41:41;101417.22;;;22.53;71.50
14204;BME280;7185;51.854;6.622;2022-08-24T01:44:13;101409.03;;;22.40;71.29
14204;BME280;7185;51.854;6.622;2022-08-24T01:46:46;101410.75;;;22.41;71.78
14204;BME280;7185;51.854;6.622;2022-08-24T01:49:20;101414.50;;;22.21;72.72
14204;BME280;7185;51.854;6.622;2022-08-24T01:51:52;101414.97;;;22.12;73.03
14204;BME280;7185;51.854;6.622;2022-08-24T01:54:26;101412.31;;;22.12;73.34
14204;BME280;7185;51.854;6.622;2022-08-24T01:56:58;101421.59;;;22.05;73.28
14204;BME280;7185;51.854;6.622;2022-08-24T01:59:30;101420.06;;;22.01;73.42
14204;BME280;7185;51.854;6.622;2022-08-24T02:02:06;101416.22;;;21.89;74.32
14204;BME280;7185;51.854;6.622;2022-08-24T02:04:40;101412.53;;;21.91;74.25
14204;BME280;7185;51.854;6.622;2022-08-24T02:07:11;101423.53;;;21.85;74.60
14204;BME280;7185;51.854;6.622;2022-08-24T02:09:44;101420.72;;;21.88;74.42
14204;BME280;7185;51.854;6.622;2022-08-24T02:12:17;101417.88;;;21.91;74.36
14204;BME280;7185;51.854;6.622;2022-08-24T02:14:49;101416.44;;;22.02;74.09
14204;BME280;7185;51.854;6.622;2022-08-24T02:17:20;101418.13;;;22.03;73.62
14204;BME280;7185;51.854;6.622;2022-08-24T02:19:52;101415.47;;;22.03;73.36
14204;BME280;7185;51.854;6.622;2022-08-24T02:22:24;101408.91;;;21.92;73.31
14204;BME280;7185;51.854;6.622;2022-08-24T02:24:57;101424.56;;;21.83;74.03
14204;BME280;7185;51.854;6.622;2022-08-24T02:27:29;101420.94;;;21.84;74.45
14204;BME280;7185;51.854;6.622;2022-08-24T02:30:00;101427.13;;;21.84;74.28
14204;BME280;7185;51.854;6.622;2022-08-24T02:32:32;101430.53;;;21.70;74.91
14204;BME280;7185;51.854;6.622;2022-08-24T02:35:04;101426.22;;;21.68;75.06
14204;BME280;7185;51.854;6.622;2022-08-24T02:37:36;101423.53;;;21.68;75.06
14204;BME280;7185;51.854;6.622;2022-08-24T02:40:11;101422.06;;;21.62;75.28
14204;BME280;7185;51.854;6.622;2022-08-24T02:42:43;101419.75;;;21.54;75.85
14204;BME280;7185;51.854;6.622;2022-08-24T02:45:15;101417.41;;;21.48;76.35
14204;BME280;7185;51.854;6.622;2022-08-24T02:47:47;101422.13;;;21.43;76.64
14204;BME280;7185;51.854;6.622;2022-08-24T02:50:19;101426.13;;;21.34;77.45
14204;BME280;7185;51.854;6.622;2022-08-24T02:52:51;101431.69;;;21.29;77.67
14204;BME280;7185;51.854;6.622;2022-08-24T02:55:25;101429.81;;;21.31;77.08
14204;BME280;7185;51.854;6.622;2022-08-24T02:57:56;101429.63;;;21.34;76.75
14204;BME280;7185;51.854;6.622;2022-08-24T03:00:28;101431.69;;;21.29;77.35
14204;BME280;7185;51.854;6.622;2022-08-24T03:02:59;101418.75;;;21.39;77.43
14204;BME280;7185;51.854;6.622;2022-08-24T03:05:32;101423.28;;;21.37;76.82
14204;BME280;7185;51.854;6.622;2022-08-24T03:08:04;101431.22;;;21.39;76.32
14204;BME280;7185;51.854;6.622;2022-08-24T03:10:37;101437.00;;;21.29;75.96
14204;BME280;7185;51.854;6.622;2022-08-24T03:13:09;101435.41;;;21.25;76.64
14204;BME280;7185;51.854;6.622;2022-08-24T03:15:41;101444.22;;;21.27;76.99
14204;BME280;7185;51.854;6.622;2022-08-24T03:18:13;101439.19;;;21.21;77.68
14204;BME280;7185;51.854;6.622;2022-08-24T03:20:45;101442.34;;;21.29;77.80
14204;BME280;7185;51.854;6.622;2022-08-24T03:23:16;101439.59;;;21.31;78.06
14204;BME280;7185;51.854;6.622;2022-08-24T03:25:50;101445.63;;;21.34;77.03
14204;BME280;7185;51.854;6.622;2022-08-24T03:28:22;101450.97;;;21.17;77.05
14204;BME280;7185;51.854;6.622;2022-08-24T03:30:55;101441.25;;;21.16;76.82
14204;BME280;7185;51.854;6.622;2022-08-24T03:33:27;101434.78;;;21.20;76.67
14204;BME280;7185;51.854;6.622;2022-08-24T03:35:59;101428.25;;;21.08;76.76
14204;BME280;7185;51.854;6.622;2022-08-24T03:38:31;101431.00;;;21.07;77.24
14204;BME280;7185;51.854;6.622;2022-08-24T03:41:04;101430.88;;;21.10;77.13
14204;BME280;7185;51.854;6.622;2022-08-24T03:43:36;101435.09;;;20.96;77.95
14204;BME280;7185;51.854;6.622;2022-08-24T03:46:19;101430.69;;;20.95;78.51
14204;BME280;7185;51.854;6.622;2022-08-24T03:48:52;101431.72;;;20.93;78.72
14204;BME280;7185;51.854;6.622;2022-08-24T03:51:25;101435.34;;;20.90;79.16
14204;BME280;7185;51.854;6.622;2022-08-24T03:53:59;101434.91;;;20.99;79.18
14204;BME280;7185;51.854;6.622;2022-08-24T03:56:32;101436.97;;;20.94;79.47
14204;BME280;7185;51.854;6.622;2022-08-24T03:59:04;101430.69;;;20.95;78.82
14204;BME280;7185;51.854;6.622;2022-08-24T04:01:37;101432.47;;;20.95;78.86
14204;BME280;7185;51.854;6.622;2022-08-24T04:04:09;101431.63;;;20.94;78.68
14204;BME280;7185;51.854;6.622;2022-08-24T04:06:41;101437.25;;;20.88;78.86
14204;BME280;7185;51.854;6.622;2022-08-24T04:09:14;101435.03;;;20.79;78.96
14204;BME280;7185;51.854;6.622;2022-08-24T04:11:47;101440.28;;;20.80;79.35
14204;BME280;7185;51.854;6.622;2022-08-24T04:14:20;101444.88;;;20.77;79.39
14204;BME280;7185;51.854;6.622;2022-08-24T04:16:51;101441.84;;;20.65;80.02
14204;BME280;7185;51.854;6.622;2022-08-24T04:19:24;101442.94;;;20.61;80.94
14204;BME280;7185;51.854;6.622;2022-08-24T04:21:55;101443.19;;;20.55;81.63
14204;BME280;7185;51.854;6.622;2022-08-24T04:24:28;101449.25;;;20.59;81.62
14204;BME280;7185;51.854;6.622;2022-08-24T04:27:02;101449.03;;;20.63;81.30
14204;BME280;7185;51.854;6.622;2022-08-24T04:29:34;101456.09;;;20.64;81.17
14204;BME280;7185;51.854;6.622;2022-08-24T04:32:06;101458.97;;;20.60;81.21
14204;BME280;7185;51.854;6.622;2022-08-24T04:34:37;101463.09;;;20.67;80.79
14204;BME280;7185;51.854;6.622;2022-08-24T04:37:10;101463.28;;;20.62;80.64
14204;BME280;7185;51.854;6.622;2022-08-24T04:39:42;101463.25;;;20.64;80.81
14204;BME280;7185;51.854;6.622;2022-08-24T04:42:16;101465.22;;;20.59;80.88
14204;BME280;7185;51.854;6.622;2022-08-24T04:44:49;101466.47;;;20.51;81.89
14204;BME280;7185;51.854;6.622;2022-08-24T04:47:20;101469.91;;;20.53;81.93
14204;BME280;7185;51.854;6.622;2022-08-24T04:49:53;101471.75;;;20.53;81.79
14204;BME280;7185;51.854;6.622;2022-08-24T04:52:25;101474.31;;;20.54;81.69
14204;BME280;7185;51.854;6.622;2022-08-24T04:54:56;101472.50;;;20.55;81.48
14204;BME280;7185;51.854;6.622;2022-08-24T04:57:29;101473.47;;;20.54;81.39
14204;BME280;7185;51.854;6.622;2022-08-24T05:00:09;101484.91;;;20.56;81.27
14204;BME280;7185;51.854;6.622;2022-08-24T05:02:41;101479.56;;;20.56;80.57
14204;BME280;7185;51.854;6.622;2022-08-24T05:05:13;101478.31;;;20.65;80.55
14204;BME280;7185;51.854;6.622;2022-08-24T05:07:44;101480.09;;;20.64;80.23
14204;BME280;7185;51.854;6.622;2022-08-24T05:10:19;101479.16;;;20.65;79.92
14204;BME280;7185;51.854;6.622;2022-08-24T05:12:53;101479.28;;;20.62;79.70
14204;BME280;7185;51.854;6.622;2022-08-24T05:15:25;101480.38;;;20.58;79.85
14204;BME280;7185;51.854;6.622;2022-08-24T05:17:57;101480.72;;;20.69;79.48
14204;BME280;7185;51.854;6.622;2022-08-24T05:20:29;101481.19;;;20.79;78.78
14204;BME280;7185;51.854;6.622;2022-08-24T05:23:00;101485.66;;;20.79;78.40
14204;BME280;7185;51.854;6.622;2022-08-24T05:25:32;101475.94;;;20.78;78.92
14204;BME280;7185;51.854;6.622;2022-08-24T05:28:05;101477.88;;;20.93;78.74
14204;BME280;7185;51.854;6.622;2022-08-24T05:30:37;101474.81;;;21.01;78.02
14204;BME280;7185;51.854;6.622;2022-08-24T05:33:09;101476.97;;;21.12;78.00
14204;BME280;7185;51.854;6.622;2022-08-24T05:35:41;101475.44;;;21.25;77.65
14204;BME280;7185;51.854;6.622;2022-08-24T05:38:13;101481.25;;;21.33;77.30
14204;BME280;7185;51.854;6.622;2022-08-24T05:40:44;101488.59;;;21.47;76.79
14204;BME280;7185;51.854;6.622;2022-08-24T05:43:18;101479.56;;;21.68;76.11
14204;BME280;7185;51.854;6.622;2022-08-24T05:45:50;101491.66;;;21.75;76.06
14204;BME280;7185;51.854;6.622;2022-08-24T05:52:21;101488.03;;;22.11;75.71
14204;BME280;7185;51.854;6.622;2022-08-24T06:30:41;101498.81;;;23.71;69.92
14204;BME280;7185;51.854;6.622;2022-08-24T06:46:39;101514.41;;;24.38;67.45
14204;BME280;7185;51.854;6.622;2022-08-24T06:49:10;101511.56;;;24.56;66.14
14204;BME280;7185;51.854;6.622;2022-08-24T06:51:42;101518.75;;;24.70;66.26
14204;BME280;7185;51.854;6.622;2022-08-24T06:54:14;101510.00;;;24.80;65.68
14204;BME280;7185;51.854;6.622;2022-08-24T06:56:46;101525.59;;;24.88;65.33
14204;BME280;7185;51.854;6.622;2022-08-24T06:59:18;101512.94;;;25.05;64.73
14204;BME280;7185;51.854;6.622;2022-08-24T07:01:51;101518.16;;;25.21;63.46
14204;BME280;7185;51.854;6.622;2022-08-24T07:04:24;101516.59;;;25.31;62.60
14204;BME280;7185;51.854;6.622;2022-08-24T07:06:56;101520.22;;;25.44;61.96
14204;BME280;7185;51.854;6.622;2022-08-24T07:09:30;101520.03;;;25.60;60.53
14204;BME280;7185;51.854;6.622;2022-08-24T07:12:02;101521.56;;;25.77;60.03
14204;BME280;7185;51.854;6.622;2022-08-24T07:14:34;101527.63;;;25.94;58.34
14204;BME280;7185;51.854;6.622;2022-08-24T07:17:07;101528.91;;;26.01;57.57
14204;BME280;7185;51.854;6.622;2022-08-24T07:19:39;101526.78;;;26.06;58.28
14204;BME280;7185;51.854;6.622;2022-08-24T07:22:10;101529.63;;;26.18;57.41
14204;BME280;7185;51.854;6.622;2022-08-24T07:24:43;101529.16;;;26.37;57.07
14204;BME280;7185;51.854;6.622;2022-08-24T07:27:15;101529.69;;;26.55;56.57
14204;BME280;7185;51.854;6.622;2022-08-24T07:29:47;101529.25;;;26.61;55.17
14204;BME280;7185;51.854;6.622;2022-08-24T07:32:20;101530.66;;;26.80;55.12
14204;BME280;7185;51.854;6.622;2022-08-24T07:34:52;101534.47;;;27.01;55.18
14204;BME280;7185;51.854;6.622;2022-08-24T07:37:24;101527.72;;;27.20;54.49
14204;BME280;7185;51.854;6.622;2022-08-24T07:39:55;101527.88;;;27.43;54.11
14204;BME280;7185;51.854;6.622;2022-08-24T07:42:27;101532.94;;;27.59;53.37
14204;BME280;7185;51.854;6.622;2022-08-24T07:44:59;101536.25;;;27.62;51.56
14204;BME280;7185;51.854;6.622;2022-08-24T07:47:32;101530.47;;;27.80;51.40
14204;BME280;7185;51.854;6.622;2022-08-24T07:50:05;101532.88;;;28.07;52.04
14204;BME280;7185;51.854;6.622;2022-08-24T07:52:37;101530.06;;;28.31;50.66
14204;BME280;7185;51.854;6.622;2022-08-24T07:55:12;101530.44;;;28.50;49.34
14204;BME280;7185;51.854;6.622;2022-08-24T07:57:44;101525.69;;;28.76;49.07
14204;BME280;7185;51.854;6.622;2022-08-24T08:00:17;101525.56;;;28.77;46.75
14204;BME280;7185;51.854;6.622;2022-08-24T08:02:51;101526.72;;;29.07;46.84
14204;BME280;7185;51.854;6.622;2022-08-24T08:05:23;101530.47;;;29.28;46.27
14204;BME280;7185;51.854;6.622;2022-08-24T08:07:55;101531.13;;;29.52;45.54
14204;BME280;7185;51.854;6.622;2022-08-24T08:10:26;101543.22;;;29.69;47.18
14204;BME280;7185;51.854;6.622;2022-08-24T08:13:00;101541.47;;;30.01;45.51
14204;BME280;7185;51.854;6.622;2022-08-24T08:15:32;101536.53;;;30.37;42.76
14204;BME280;7185;51.854;6.622;2022-08-24T08:18:05;101534.34;;;30.52;42.41
14204;BME280;7185;51.854;6.622;2022-08-24T08:20:38;101545.84;;;30.75;43.87
14204;BME280;7185;51.854;6.622;2022-08-24T08:23:10;101540.53;;;31.14;41.18
14204;BME280;7185;51.854;6.622;2022-08-24T08:25:59;101542.00;;;31.38;41.41
14204;BME280;7185;51.854;6.622;2022-08-24T08:28:32;101542.28;;;31.45;40.55
14204;BME280;7185;51.854;6.622;2022-08-24T08:31:04;101538.72;;;31.44;40.98
14204;BME280;7185;51.854;6.622;2022-08-24T08:33:37;101538.28;;;31.59;40.47
14204;BME280;7185;51.854;6.622;2022-08-24T08:36:11;101542.00;;;31.58;40.56
14204;BME280;7185;51.854;6.622;2022-08-24T08:38:44;101538.56;;;31.46;40.26
14204;BME280;7185;51.854;6.622;2022-08-24T08:50:57;101546.44;;;31.69;40.30
14204;BME280;7185;51.854;6.622;2022-08-24T08:56:34;101538.69;;;32.51;38.59
14204;BME280;7185;51.854;6.622;2022-08-24T08:59:15;101536.25;;;32.85;38.02
14204;BME280;7185;51.854;6.622;2022-08-24T09:02:03;101538.88;;;33.59;36.59
14204;BME280;7185;51.854;6.622;2022-08-24T09:04:54;101542.25;;;33.97;35.50
14204;BME280;7185;51.854;6.622;2022-08-24T09:07:44;101544.81;;;33.99;35.73
14204;BME280;7185;51.854;6.622;2022-08-24T09:10:37;101534.22;;;34.22;35.54
14204;BME280;7185;51.854;6.622;2022-08-24T09:13:23;101530.03;;;34.62;34.15
14204;BME280;7185;51.854;6.622;2022-08-24T09:16:09;101534.09;;;34.58;34.30
14204;BME280;7185;51.854;6.622;2022-08-24T09:18:52;101536.47;;;34.27;34.99
14204;BME280;7185;51.854;6.622;2022-08-24T09:21:34;101531.41;;;34.67;34.33
14204;BME280;7185;51.854;6.622;2022-08-24T09:24:24;101533.94;;;35.03;34.06
14204;BME280;7185;51.854;6.622;2022-08-24T09:27:07;101532.44;;;35.17;33.59
14204;BME280;7185;51.854;6.622;2022-08-24T09:29:55;101528.72;;;35.67;32.71
14204;BME280;7185;51.854;6.622;2022-08-24T09:32:53;101533.28;;;36.08;31.74
14204;BME280;7185;51.854;6.622;2022-08-24T09:35:33;101521.81;;;36.29;31.27
14204;BME280;7185;51.854;6.622;2022-08-24T09:38:15;101526.66;;;36.59;30.41
14204;BME280;7185;51.854;6.622;2022-08-24T09:41:10;101518.06;;;36.70;30.79
14204;BME280;7185;51.854;6.622;2022-08-24T09:53:12;101527.91;;;37.11;29.27
14204;BME280;7185;51.854;6.622;2022-08-24T09:56:17;101525.47;;;36.84;29.39
14204;BME280;7185;51.854;6.622;2022-08-24T09:59:05;101524.59;;;37.00;29.55
14204;BME280;7185;51.854;6.622;2022-08-24T10:01:50;101525.66;;;36.91;29.84
14204;BME280;7185;51.854;6.622;2022-08-24T10:04:31;101513.09;;;36.74;29.88
14204;BME280;7185;51.854;6.622;2022-08-24T10:07:10;101514.63;;;36.28;30.28
14204;BME280;7185;51.854;6.622;2022-08-24T10:10:09;101511.63;;;36.15;30.53
14204;BME280;7185;51.854;6.622;2022-08-24T10:12:58;101520.00;;;35.72;31.60
14204;BME280;7185;51.854;6.622;2022-08-24T10:15:38;101511.19;;;35.53;31.40
14204;BME280;7185;51.854;6.622;2022-08-24T10:18:24;101510.91;;;34.97;31.72
14204;BME280;7185;51.854;6.622;2022-08-24T10:21:23;101506.41;;;34.28;32.92
14204;BME280;7185;51.854;6.622;2022-08-24T10:24:08;101504.75;;;34.87;33.11
14204;BME280;7185;51.854;6.622;2022-08-24T10:27:03;101492.94;;;35.46;31.99
14204;BME280;7185;51.854;6.622;2022-08-24T10:29:56;101497.88;;;35.42;31.56
14204;BME280;7185;51.854;6.622;2022-08-24T10:32:46;101500.59;;;35.67;30.38
14204;BME280;7185;51.854;6.622;2022-08-24T10:35:25;101497.88;;;35.75;30.39
14204;BME280;7185;51.854;6.622;2022-08-24T10:38:11;101499.69;;;36.56;29.92
14204;BME280;7185;51.854;6.622;2022-08-24T10:41:21;101494.16;;;37.04;29.30
14204;BME280;7185;51.854;6.622;2022-08-24T10:44:24;101491.03;;;37.68;28.26
14204;BME280;7185;51.854;6.622;2022-08-24T10:47:10;101490.25;;;38.13;27.54
14204;BME280;7185;51.854;6.622;2022-08-24T10:53:08;101482.78;;;38.88;26.71
14204;BME280;7185;51.854;6.622;2022-08-24T10:55:43;101477.13;;;38.38;26.71
14204;BME280;7185;51.854;6.622;2022-08-24T10:58:55;101477.84;;;38.62;26.66
14204;BME280;7185;51.854;6.622;2022-08-24T11:01:30;101479.88;;;39.11;26.32
14204;BME280;7185;51.854;6.622;2022-08-24T11:04:08;101468.16;;;38.81;26.50
14204;BME280;7185;51.854;6.622;2022-08-24T11:06:42;101475.88;;;39.35;25.69
14204;BME280;7185;51.854;6.622;2022-08-24T11:09:16;101467.44;;;39.65;25.72
14204;BME280;7185;51.854;6.622;2022-08-24T11:11:48;101478.66;;;39.20;26.00
14204;BME280;7185;51.854;6.622;2022-08-24T11:14:25;101479.75;;;39.70;25.23
14204;BME280;7185;51.854;6.622;2022-08-24T11:17:14;101470.94;;;39.81;25.39
14204;BME280;7185;51.854;6.622;2022-08-24T11:19:49;101476.50;;;39.88;25.56
14204;BME280;7185;51.854;6.622;2022-08-24T11:22:27;101469.28;;;40.77;24.26
14204;BME280;7185;51.854;6.622;2022-08-24T11:25:04;101456.88;;;41.08;23.92
14204;BME280;7185;51.854;6.622;2022-08-24T11:27:40;101469.75;;;39.90;24.35
14204;BME280;7185;51.854;6.622;2022-08-24T11:30:21;101480.50;;;38.55;26.03
14204;BME280;7185;51.854;6.622;2022-08-24T11:32:55;101468.13;;;39.46;25.91
14204;BME280;7185;51.854;6.622;2022-08-24T11:35:36;101464.63;;;40.22;24.12
14204;BME280;7185;51.854;6.622;2022-08-24T11:38:14;101462.56;;;41.13;23.98
14204;BME280;7185;51.854;6.622;2022-08-24T11:40:50;101456.16;;;40.66;25.20
14204;BME280;7185;51.854;6.622;2022-08-24T11:43:30;101463.38;;;40.93;22.93
14204;BME280;7185;51.854;6.622;2022-08-24T11:46:12;101461.66;;;40.59;23.38
14204;BME280;7185;51.854;6.622;2022-08-24T11:48:56;101458.06;;;40.72;23.34
14204;BME280;7185;51.854;6.622;2022-08-24T11:51:40;101455.88;;;40.47;23.64
14204;BME280;7185;51.854;6.622;2022-08-24T11:54:20;101459.59;;;39.34;24.97
14204;BME280;7185;51.854;6.622;2022-08-24T11:57:05;101460.41;;;38.84;25.61
14204;BME280;7185;51.854;6.622;2022-08-24T11:59:43;101460.16;;;39.01;25.07
14204;BME280;7185;51.854;6.622;2022-08-24T12:02:24;101457.16;;;38.59;25.38
14204;BME280;7185;51.854;6.622;2022-08-24T12:05:03;101458.91;;;38.82;26.73
14204;BME280;7185;51.854;6.622;2022-08-24T12:07:48;101447.59;;;38.92;25.75
14204;BME280;7185;51.854;6.622;2022-08-24T12:10:29;101448.84;;;39.32;24.97
14204;BME280;7185;51.854;6.622;2022-08-24T12:13:05;101440.28;;;39.71;24.45
14204;BME280;7185;51.854;6.622;2022-08-24T12:15:44;101439.75;;;40.30;24.35
14204;BME280;7185;51.854;6.622;2022-08-24T12:18:26;101434.25;;;41.19;23.47
14204;BME280;7185;51.854;6.622;2022-08-24T12:20:59;101437.34;;;41.83;22.13
14204;BME280;7185;51.854;6.622;2022-08-24T12:23:35;101440.50;;;41.80;22.22
14204;BME280;7185;51.854;6.622;2022-08-24T12:26:11;101436.38;;;42.16;22.17
14204;BME280;7185;51.854;6.622;2022-08-24T12:28:47;101437.84;;;42.19;21.35
14204;BME280;7185;51.854;6.622;2022-08-24T12:31:22;101437.75;;;41.94;21.68
14204;BME280;7185;51.854;6.622;2022-08-24T12:34:00;101437.03;;;42.18;22.22
14204;BME280;7185;51.854;6.622;2022-08-24T12:36:39;101443.84;;;42.02;21.56
14204;BME280;7185;51.854;6.622;2022-08-24T12:39:16;101431.56;;;42.50;21.92
14204;BME280;7185;51.854;6.622;2022-08-24T12:41:59;101436.75;;;42.27;21.62
14204;BME280;7185;51.854;6.622;2022-08-24T12:44:40;101432.41;;;41.99;22.00
14204;BME280;7185;51.854;6.622;2022-08-24T12:47:18;101440.19;;;42.15;21.75
14204;BME280;7185;51.854;6.622;2022-08-24T12:49:56;101441.75;;;42.50;21.29
14204;BME280;7185;51.854;6.622;2022-08-24T12:55:53;101435.25;;;42.70;21.18
14204;BME280;7185;51.854;6.622;2022-08-24T12:58:39;101438.00;;;43.02;21.06
14204;BME280;7185;51.854;6.622;2022-08-24T13:01:17;101440.44;;;43.42;20.45
14204;BME280;7185;51.854;6.622;2022-08-24T13:04:04;101437.66;;;43.86;19.97
14204;BME280;7185;51.854;6.622;2022-08-24T13:06:39;101427.00;;;44.08;20.15
14204;BME280;7185;51.854;6.622;2022-08-24T13:09:24;101435.22;;;43.96;19.68
14204;BME280;7185;51.854;6.622;2022-08-24T13:15:20;101427.59;;;44.10;19.07
14204;BME280;7185;51.854;6.622;2022-08-24T13:17:56;101426.31;;;43.57;20.61
14204;BME280;7185;51.854;6.622;2022-08-24T13:20:54;101425.06;;;42.70;20.53
14204;BME280;7185;51.854;6.622;2022-08-24T13:23:25;101424.00;;;42.71;20.27
14204;BME280;7185;51.854;6.622;2022-08-24T13:25:58;101419.81;;;42.62;20.50
14204;BME280;7185;51.854;6.622;2022-08-24T13:28:38;101424.03;;;42.32;20.60
14204;BME280;7185;51.854;6.622;2022-08-24T13:31:16;101416.25;;;42.55;20.84
14204;BME280;7185;51.854;6.622;2022-08-24T13:33:51;101424.19;;;42.44;20.35
14204;BME280;7185;51.854;6.622;2022-08-24T13:36:54;101418.94;;;41.70;20.87
14204;BME280;7185;51.854;6.622;2022-08-24T13:39:45;101412.09;;;41.86;21.54
14204;BME280;7185;51.854;6.622;2022-08-24T13:42:29;101412.91;;;42.07;21.40
14204;BME280;7185;51.854;6.622;2022-08-24T13:45:22;101410.94;;;41.29;21.15
14204;BME280;7185;51.854;6.622;2022-08-24T13:48:01;101411.78;;;40.82;21.62
14204;BME280;7185;51.854;6.622;2022-08-24T13:50:47;101412.50;;;40.29;22.68
14204;BME280;7185;51.854;6.622;2022-08-24T13:53:44;101408.78;;;40.57;22.76
14204;BME280;7185;51.854;6.622;2022-08-24T13:57:10;101405.41;;;40.61;22.97
14204;BME280;7185;51.854;6.622;2022-08-24T14:00:00;101402.88;;;40.80;21.83
14204;BME280;7185;51.854;6.622;2022-08-24T14:02:47;101403.22;;;40.50;22.06
14204;BME280;7185;51.854;6.622;2022-08-24T14:05:28;101398.75;;;40.36;22.27
14204;BME280;7185;51.854;6.622;2022-08-24T14:08:10;101392.44;;;39.93;23.47
14204;BME280;7185;51.854;6.622;2022-08-24T14:10:55;101407.47;;;39.05;23.56
14204;BME280;7185;51.854;6.622;2022-08-24T14:13:41;101393.78;;;38.10;23.82
14204;BME280;7185;51.854;6.622;2022-08-24T14:16:34;101394.38;;;37.91;24.69
14204;BME280;7185;51.854;6.622;2022-08-24T14:19:38;101395.63;;;38.25;24.95
14204;BME280;7185;51.854;6.622;2022-08-24T14:22:21;101398.78;;;37.62;24.87
14204;BME280;7185;51.854;6.622;2022-08-24T14:25:13;101385.06;;;37.32;25.35
14204;BME280;7185;51.854;6.622;2022-08-24T14:27:47;101382.38;;;37.47;25.91
14204;BME280;7185;51.854;6.622;2022-08-24T14:30:39;101386.50;;;37.43;26.10
14204;BME280;7185;51.854;6.622;2022-08-24T14:33:20;101390.03;;;37.82;26.11
14204;BME280;7185;51.854;6.622;2022-08-24T14:36:12;101382.66;;;37.97;25.71
14204;BME280;7185;51.854;6.622;2022-08-24T14:38:55;101378.78;;;38.06;25.32
14204;BME280;7185;51.854;6.622;2022-08-24T14:41:39;101382.38;;;37.77;25.37
14204;BME280;7185;51.854;6.622;2022-08-24T14:44:23;101378.88;;;37.15;26.70
14204;BME280;7185;51.854;6.622;2022-08-24T14:47:04;101370.72;;;37.30;25.88
14204;BME280;7185;51.854;6.622;2022-08-24T14:49:42;101368.31;;;37.65;25.48
14204;BME280;7185;51.854;6.622;2022-08-24T14:52:34;101368.22;;;37.43;25.58
14204;BME280;7185;51.854;6.622;2022-08-24T14:55:15;101364.84;;;37.56;26.01
14204;BME280;7185;51.854;6.622;2022-08-24T15:01:02;101368.69;;;37.09;26.62
14204;BME280;7185;51.854;6.622;2022-08-24T15:03:54;101366.53;;;36.58;26.48
14204;BME280;7185;51.854;6.622;2022-08-24T15:06:36;101371.16;;;36.57;27.51
14204;BME280;7185;51.854;6.622;2022-08-24T15:09:18;101368.59;;;36.56;27.89
14204;BME280;7185;51.854;6.622;2022-08-24T15:11:51;101370.00;;;36.75;28.08
14204;BME280;7185;51.854;6.622;2022-08-24T15:14:31;101366.91;;;36.78;26.94
14204;BME280;7185;51.854;6.622;2022-08-24T15:17:08;101369.69;;;36.93;27.14
14204;BME280;7185;51.854;6.622;2022-08-24T15:19:49;101362.72;;;36.67;28.31
14204;BME280;7185;51.854;6.622;2022-08-24T15:22:36;101366.19;;;36.61;27.37